sensor_id;sensor_type;location;lat;lon;timestamp;P1;durP1;ratioP1;P2;durP2;ratioP2
75687;SDS011;64300;45.034;38.910;2023-02-01T00:01:36;13.20;;;6.38;;
75687;SDS011;64300;45.034;38.910;2023-02-01T00:04:01;15.32;;;6.75;;
75687;SDS011;64300;45.034;38.910;2023-02-01T00:06:27;18.60;;;7.25;;
75687;SDS011;64300;45.034;38.910;2023-02-01T00:08:54;21.17;;;8.02;;
75687;SDS011;64300;45.034;38.910;2023-02-01T00:11:21;18.88;;;7.63;;
75687;SDS011;64300;45.034;38.910;2023-02-01T00:13:47;20.38;;;8.32;;
75687;SDS011;64300;45.034;38.910;2023-02-01T00:16:15;22.23;;;8.95;;
75687;SDS011;64300;45.034;38.910;2023-02-01T00:18:43;27.85;;;9.25;;
75687;SDS011;64300;45.034;38.910;2023-02-01T00:21:14;22.80;;;10.02;;
75687;SDS011;64300;45.034;38.910;2023-02-01T00:23:41;26.08;;;9.98;;
75687;SDS011;64300;45.034;38.910;2023-02-01T00:26:11;28.25;;;10.45;;
75687;SDS011;64300;45.034;38.910;2023-02-01T00:28:40;33.00;;;11.35;;
75687;SDS011;64300;45.034;38.910;2023-02-01T00:31:06;30.38;;;10.63;;
75687;SDS011;64300;45.034;38.910;2023-02-01T00:33:32;28.45;;;10.93;;
75687;SDS011;64300;45.034;38.910;2023-02-01T00:38:24;26.38;;;9.88;;
75687;SDS011;64300;45.034;38.910;2023-02-01T00:40:51;31.65;;;10.93;;
75687;SDS011;64300;45.034;38.910;2023-02-01T00:43:17;25.63;;;9.93;;
75687;SDS011;64300;45.034;38.910;2023-02-01T00:45:44;28.10;;;10.35;;
75687;SDS011;64300;45.034;38.910;2023-02-01T00:48:11;27.08;;;10.20;;
75687;SDS011;64300;45.034;38.910;2023-02-01T00:50:46;30.58;;;11.60;;
75687;SDS011;64300;45.034;38.910;2023-02-01T00:53:12;37.80;;;15.00;;
75687;SDS011;64300;45.034;38.910;2023-02-01T00:55:37;28.30;;;9.90;;
75687;SDS011;64300;45.034;38.910;2023-02-01T00:58:03;28.17;;;11.00;;
75687;SDS011;64300;45.034;38.910;2023-02-01T01:00:34;21.55;;;8.30;;
75687;SDS011;64300;45.034;38.910;2023-02-01T01:03:00;29.95;;;12.57;;
75687;SDS011;64300;45.034;38.910;2023-02-01T01:07:53;40.17;;;14.60;;
75687;SDS011;64300;45.034;38.910;2023-02-01T01:10:19;24.15;;;8.60;;
75687;SDS011;64300;45.034;38.910;2023-02-01T01:12:45;26.50;;;9.73;;
75687;SDS011;64300;45.034;38.910;2023-02-01T01:15:10;32.75;;;11.50;;
75687;SDS011;64300;45.034;38.910;2023-02-01T01:17:37;33.60;;;11.60;;
75687;SDS011;64300;45.034;38.910;2023-02-01T01:20:03;38.90;;;11.80;;
75687;SDS011;64300;45.034;38.910;2023-02-01T01:22:29;43.15;;;13.85;;
75687;SDS011;64300;45.034;38.910;2023-02-01T01:24:55;28.13;;;10.75;;
75687;SDS011;64300;45.034;38.910;2023-02-01T01:27:21;28.88;;;10.68;;
75687;SDS011;64300;45.034;38.910;2023-02-01T01:29:49;31.15;;;10.40;;
75687;SDS011;64300;45.034;38.910;2023-02-01T01:32:15;28.92;;;10.63;;
75687;SDS011;64300;45.034;38.910;2023-02-01T01:34:41;21.73;;;9.23;;
75687;SDS011;64300;45.034;38.910;2023-02-01T01:37:07;27.42;;;9.07;;
75687;SDS011;64300;45.034;38.910;2023-02-01T01:41:59;11.55;;;4.95;;
75687;SDS011;64300;45.034;38.910;2023-02-01T01:50:13;20.90;;;5.22;;
75687;SDS011;64300;45.034;38.910;2023-02-01T01:52:42;16.13;;;4.25;;
75687;SDS011;64300;45.034;38.910;2023-02-01T01:55:12;15.13;;;4.60;;
75687;SDS011;64300;45.034;38.910;2023-02-01T01:57:41;32.95;;;4.43;;
75687;SDS011;64300;45.034;38.910;2023-02-01T02:00:14;29.30;;;7.13;;
75687;SDS011;64300;45.034;38.910;2023-02-01T02:02:44;19.98;;;4.90;;
75687;SDS011;64300;45.034;38.910;2023-02-01T02:05:13;74.25;;;6.63;;
75687;SDS011;64300;45.034;38.910;2023-02-01T02:07:43;85.30;;;8.27;;
75687;SDS011;64300;45.034;38.910;2023-02-01T02:10:12;61.00;;;10.90;;
75687;SDS011;64300;45.034;38.910;2023-02-01T02:12:40;38.20;;;10.32;;
75687;SDS011;64300;45.034;38.910;2023-02-01T02:15:09;19.60;;;4.15;;
75687;SDS011;64300;45.034;38.910;2023-02-01T02:20:26;35.22;;;5.43;;
75687;SDS011;64300;45.034;38.910;2023-02-01T02:26:05;30.15;;;7.07;;
75687;SDS011;64300;45.034;38.910;2023-02-01T02:31:52;103.10;;;8.93;;
75687;SDS011;64300;45.034;38.910;2023-02-01T02:40:14;20.95;;;5.63;;
75687;SDS011;64300;45.034;38.910;2023-02-01T02:49:15;23.17;;;4.47;;
75687;SDS011;64300;45.034;38.910;2023-02-01T02:51:50;38.15;;;6.63;;
75687;SDS011;64300;45.034;38.910;2023-02-01T02:54:45;46.38;;;5.60;;
75687;SDS011;64300;45.034;38.910;2023-02-01T02:57:17;22.05;;;6.45;;
75687;SDS011;64300;45.034;38.910;2023-02-01T03:00:06;49.50;;;6.63;;
75687;SDS011;64300;45.034;38.910;2023-02-01T03:02:54;22.38;;;5.32;;
75687;SDS011;64300;45.034;38.910;2023-02-01T03:05:45;63.45;;;7.22;;
75687;SDS011;64300;45.034;38.910;2023-02-01T03:08:18;26.48;;;5.43;;
75687;SDS011;64300;45.034;38.910;2023-02-01T03:13:24;44.80;;;6.60;;
75687;SDS011;64300;45.034;38.910;2023-02-01T03:18:26;25.58;;;7.40;;
75687;SDS011;64300;45.034;38.910;2023-02-01T03:20:57;22.95;;;5.45;;
75687;SDS011;64300;45.034;38.910;2023-02-01T03:23:30;40.50;;;5.80;;
75687;SDS011;64300;45.034;38.910;2023-02-01T03:25:59;32.67;;;6.03;;
75687;SDS011;64300;45.034;38.910;2023-02-01T03:28:28;35.65;;;6.55;;
75687;SDS011;64300;45.034;38.910;2023-02-01T03:30:56;31.48;;;6.47;;
75687;SDS011;64300;45.034;38.910;2023-02-01T03:33:23;37.30;;;6.10;;
75687;SDS011;64300;45.034;38.910;2023-02-01T03:43:21;29.83;;;6.97;;
75687;SDS011;64300;45.034;38.910;2023-02-01T03:45:52;23.42;;;6.28;;
75687;SDS011;64300;45.034;38.910;2023-02-01T03:48:23;30.10;;;7.00;;
75687;SDS011;64300;45.034;38.910;2023-02-01T03:50:53;22.17;;;7.50;;
75687;SDS011;64300;45.034;38.910;2023-02-01T03:53:23;51.97;;;8.45;;
75687;SDS011;64300;45.034;38.910;2023-02-01T03:55:50;37.47;;;7.40;;
75687;SDS011;64300;45.034;38.910;2023-02-01T03:58:21;35.47;;;8.43;;
75687;SDS011;64300;45.034;38.910;2023-02-01T04:00:55;57.25;;;9.75;;
75687;SDS011;64300;45.034;38.910;2023-02-01T04:03:23;62.00;;;9.55;;
75687;SDS011;64300;45.034;38.910;2023-02-01T04:05:51;55.67;;;8.32;;
75687;SDS011;64300;45.034;38.910;2023-02-01T04:08:21;51.38;;;8.73;;
75687;SDS011;64300;45.034;38.910;2023-02-01T04:10:47;36.97;;;8.93;;
75687;SDS011;64300;45.034;38.910;2023-02-01T04:13:13;37.72;;;10.00;;
75687;SDS011;64300;45.034;38.910;2023-02-01T04:15:39;28.63;;;8.48;;
75687;SDS011;64300;45.034;38.910;2023-02-01T04:18:05;29.73;;;8.15;;
75687;SDS011;64300;45.034;38.910;2023-02-01T04:20:31;62.42;;;8.40;;
75687;SDS011;64300;45.034;38.910;2023-02-01T04:22:57;55.40;;;9.30;;
75687;SDS011;64300;45.034;38.910;2023-02-01T04:25:23;24.95;;;8.52;;
75687;SDS011;64300;45.034;38.910;2023-02-01T04:27:49;35.55;;;9.20;;
75687;SDS011;64300;45.034;38.910;2023-02-01T04:30:15;36.38;;;8.02;;
75687;SDS011;64300;45.034;38.910;2023-02-01T04:32:41;30.15;;;7.10;;
75687;SDS011;64300;45.034;38.910;2023-02-01T04:35:07;28.15;;;7.88;;
75687;SDS011;64300;45.034;38.910;2023-02-01T04:39:59;41.97;;;7.55;;
75687;SDS011;64300;45.034;38.910;2023-02-01T04:42:25;24.05;;;7.50;;
75687;SDS011;64300;45.034;38.910;2023-02-01T04:44:51;55.60;;;9.82;;
75687;SDS011;64300;45.034;38.910;2023-02-01T04:47:16;42.50;;;11.02;;
75687;SDS011;64300;45.034;38.910;2023-02-01T04:49:42;56.70;;;12.00;;
75687;SDS011;64300;45.034;38.910;2023-02-01T04:52:10;43.80;;;11.00;;
75687;SDS011;64300;45.034;38.910;2023-02-01T04:54:36;35.90;;;11.00;;
75687;SDS011;64300;45.034;38.910;2023-02-01T04:57:02;38.17;;;8.38;;
75687;SDS011;64300;45.034;38.910;2023-02-01T04:59:30;25.70;;;8.05;;
75687;SDS011;64300;45.034;38.910;2023-02-01T05:01:56;28.73;;;8.32;;
75687;SDS011;64300;45.034;38.910;2023-02-01T05:04:22;27.30;;;8.35;;
75687;SDS011;64300;45.034;38.910;2023-02-01T05:06:48;26.92;;;8.75;;
75687;SDS011;64300;45.034;38.910;2023-02-01T05:09:14;25.42;;;9.20;;
75687;SDS011;64300;45.034;38.910;2023-02-01T05:11:39;32.05;;;9.90;;
75687;SDS011;64300;45.034;38.910;2023-02-01T05:14:24;33.70;;;10.07;;
75687;SDS011;64300;45.034;38.910;2023-02-01T05:16:50;31.48;;;8.95;;
75687;SDS011;64300;45.034;38.910;2023-02-01T05:19:16;48.03;;;13.90;;
75687;SDS011;64300;45.034;38.910;2023-02-01T05:21:42;35.53;;;10.80;;
75687;SDS011;64300;45.034;38.910;2023-02-01T05:24:08;29.75;;;8.55;;
75687;SDS011;64300;45.034;38.910;2023-02-01T05:26:45;25.70;;;8.75;;
75687;SDS011;64300;45.034;38.910;2023-02-01T05:29:11;34.70;;;9.95;;
75687;SDS011;64300;45.034;38.910;2023-02-01T05:31:38;35.03;;;9.30;;
75687;SDS011;64300;45.034;38.910;2023-02-01T05:34:04;35.50;;;10.73;;
75687;SDS011;64300;45.034;38.910;2023-02-01T05:36:31;44.08;;;9.57;;
75687;SDS011;64300;45.034;38.910;2023-02-01T05:41:23;31.83;;;9.75;;
75687;SDS011;64300;45.034;38.910;2023-02-01T05:43:49;23.02;;;8.73;;
75687;SDS011;64300;45.034;38.910;2023-02-01T05:46:14;19.15;;;7.75;;
75687;SDS011;64300;45.034;38.910;2023-02-01T05:48:40;27.83;;;9.00;;
75687;SDS011;64300;45.034;38.910;2023-02-01T05:51:14;27.45;;;9.65;;
75687;SDS011;64300;45.034;38.910;2023-02-01T05:53:40;34.70;;;12.48;;
75687;SDS011;64300;45.034;38.910;2023-02-01T05:56:06;32.60;;;12.43;;
75687;SDS011;64300;45.034;38.910;2023-02-01T05:58:32;22.45;;;7.85;;
75687;SDS011;64300;45.034;38.910;2023-02-01T06:00:59;30.65;;;10.63;;
75687;SDS011;64300;45.034;38.910;2023-02-01T06:05:55;26.13;;;9.25;;
75687;SDS011;64300;45.034;38.910;2023-02-01T06:08:21;28.08;;;10.50;;
75687;SDS011;64300;45.034;38.910;2023-02-01T06:10:49;29.77;;;10.15;;
75687;SDS011;64300;45.034;38.910;2023-02-01T06:13:15;26.25;;;9.25;;
75687;SDS011;64300;45.034;38.910;2023-02-01T06:15:41;39.30;;;14.60;;
75687;SDS011;64300;45.034;38.910;2023-02-01T06:18:09;35.10;;;11.32;;
75687;SDS011;64300;45.034;38.910;2023-02-01T06:20:35;25.30;;;9.02;;
75687;SDS011;64300;45.034;38.910;2023-02-01T06:23:01;26.25;;;8.98;;
75687;SDS011;64300;45.034;38.910;2023-02-01T06:25:27;28.92;;;9.15;;
75687;SDS011;64300;45.034;38.910;2023-02-01T06:27:52;27.42;;;8.88;;
75687;SDS011;64300;45.034;38.910;2023-02-01T06:30:18;24.63;;;8.20;;
75687;SDS011;64300;45.034;38.910;2023-02-01T06:32:49;23.88;;;8.50;;
75687;SDS011;64300;45.034;38.910;2023-02-01T06:35:19;25.85;;;8.98;;
75687;SDS011;64300;45.034;38.910;2023-02-01T06:37:45;27.55;;;8.73;;
75687;SDS011;64300;45.034;38.910;2023-02-01T06:40:14;26.23;;;10.43;;
75687;SDS011;64300;45.034;38.910;2023-02-01T06:45:06;23.58;;;8.52;;
75687;SDS011;64300;45.034;38.910;2023-02-01T06:47:32;22.55;;;8.43;;
75687;SDS011;64300;45.034;38.910;2023-02-01T06:50:01;23.20;;;8.35;;
75687;SDS011;64300;45.034;38.910;2023-02-01T06:52:27;26.88;;;8.50;;
75687;SDS011;64300;45.034;38.910;2023-02-01T06:54:52;26.35;;;8.90;;
75687;SDS011;64300;45.034;38.910;2023-02-01T06:59:44;24.95;;;8.50;;
75687;SDS011;64300;45.034;38.910;2023-02-01T07:02:11;26.67;;;8.65;;
75687;SDS011;64300;45.034;38.910;2023-02-01T07:04:42;27.38;;;9.10;;
75687;SDS011;64300;45.034;38.910;2023-02-01T07:07:08;29.05;;;9.10;;
75687;SDS011;64300;45.034;38.910;2023-02-01T07:09:34;27.10;;;9.88;;
75687;SDS011;64300;45.034;38.910;2023-02-01T07:12:00;25.92;;;9.18;;
75687;SDS011;64300;45.034;38.910;2023-02-01T07:14:26;25.95;;;9.43;;
75687;SDS011;64300;45.034;38.910;2023-02-01T07:16:51;25.50;;;9.27;;
75687;SDS011;64300;45.034;38.910;2023-02-01T07:19:17;23.90;;;8.50;;
75687;SDS011;64300;45.034;38.910;2023-02-01T07:21:43;25.52;;;8.65;;
75687;SDS011;64300;45.034;38.910;2023-02-01T07:24:09;24.80;;;8.85;;
75687;SDS011;64300;45.034;38.910;2023-02-01T07:26:35;29.48;;;8.73;;
75687;SDS011;64300;45.034;38.910;2023-02-01T07:29:00;24.17;;;8.35;;
75687;SDS011;64300;45.034;38.910;2023-02-01T07:31:26;31.17;;;10.32;;
75687;SDS011;64300;45.034;38.910;2023-02-01T07:33:54;27.13;;;9.57;;
75687;SDS011;64300;45.034;38.910;2023-02-01T07:39:40;27.15;;;9.10;;
75687;SDS011;64300;45.034;38.910;2023-02-01T07:42:06;34.47;;;10.63;;
75687;SDS011;64300;45.034;38.910;2023-02-01T07:44:32;31.75;;;10.95;;
75687;SDS011;64300;45.034;38.910;2023-02-01T07:46:58;31.70;;;11.18;;
75687;SDS011;64300;45.034;38.910;2023-02-01T07:49:23;27.80;;;10.57;;
75687;SDS011;64300;45.034;38.910;2023-02-01T07:51:52;27.58;;;11.80;;
75687;SDS011;64300;45.034;38.910;2023-02-01T07:54:18;25.42;;;10.57;;
75687;SDS011;64300;45.034;38.910;2023-02-01T07:56:46;26.63;;;9.73;;
75687;SDS011;64300;45.034;38.910;2023-02-01T07:59:12;28.73;;;11.48;;
75687;SDS011;64300;45.034;38.910;2023-02-01T08:01:37;25.85;;;10.45;;
75687;SDS011;64300;45.034;38.910;2023-02-01T08:04:04;27.33;;;10.50;;
75687;SDS011;64300;45.034;38.910;2023-02-01T08:06:30;22.73;;;9.93;;
75687;SDS011;64300;45.034;38.910;2023-02-01T08:08:59;22.63;;;10.35;;
75687;SDS011;64300;45.034;38.910;2023-02-01T08:11:39;24.45;;;11.18;;
75687;SDS011;64300;45.034;38.910;2023-02-01T08:14:05;21.55;;;9.50;;
75687;SDS011;64300;45.034;38.910;2023-02-01T08:16:31;23.92;;;10.80;;
75687;SDS011;64300;45.034;38.910;2023-02-01T08:19:00;23.50;;;9.50;;
75687;SDS011;64300;45.034;38.910;2023-02-01T08:21:26;21.13;;;8.82;;
75687;SDS011;64300;45.034;38.910;2023-02-01T08:24:05;21.67;;;9.13;;
75687;SDS011;64300;45.034;38.910;2023-02-01T08:26:33;19.85;;;9.30;;
75687;SDS011;64300;45.034;38.910;2023-02-01T08:31:27;20.60;;;10.05;;
75687;SDS011;64300;45.034;38.910;2023-02-01T08:33:57;21.92;;;10.13;;
75687;SDS011;64300;45.034;38.910;2023-02-01T08:36:25;20.35;;;9.68;;
75687;SDS011;64300;45.034;38.910;2023-02-01T08:38:53;18.83;;;8.55;;
75687;SDS011;64300;45.034;38.910;2023-02-01T08:41:21;22.40;;;10.60;;
75687;SDS011;64300;45.034;38.910;2023-02-01T08:43:48;18.45;;;9.15;;
75687;SDS011;64300;45.034;38.910;2023-02-01T08:46:14;22.60;;;9.57;;
75687;SDS011;64300;45.034;38.910;2023-02-01T08:48:42;17.75;;;8.60;;
75687;SDS011;64300;45.034;38.910;2023-02-01T08:51:09;19.05;;;8.70;;
75687;SDS011;64300;45.034;38.910;2023-02-01T08:53:40;21.27;;;9.45;;
75687;SDS011;64300;45.034;38.910;2023-02-01T08:56:06;22.38;;;10.13;;
75687;SDS011;64300;45.034;38.910;2023-02-01T08:58:33;20.77;;;9.30;;
75687;SDS011;64300;45.034;38.910;2023-02-01T09:01:04;18.38;;;8.35;;
75687;SDS011;64300;45.034;38.910;2023-02-01T09:03:31;19.92;;;9.32;;
75687;SDS011;64300;45.034;38.910;2023-02-01T09:06:00;21.40;;;8.90;;
75687;SDS011;64300;45.034;38.910;2023-02-01T09:08:28;22.48;;;9.93;;
75687;SDS011;64300;45.034;38.910;2023-02-01T09:11:04;21.88;;;9.23;;
75687;SDS011;64300;45.034;38.910;2023-02-01T09:13:35;19.30;;;8.88;;
75687;SDS011;64300;45.034;38.910;2023-02-01T09:16:12;20.38;;;10.27;;
75687;SDS011;64300;45.034;38.910;2023-02-01T09:18:38;21.65;;;9.52;;
75687;SDS011;64300;45.034;38.910;2023-02-01T09:21:05;20.90;;;9.90;;
75687;SDS011;64300;45.034;38.910;2023-02-01T09:23:34;23.40;;;11.27;;
75687;SDS011;64300;45.034;38.910;2023-02-01T09:26:01;24.23;;;10.57;;
75687;SDS011;64300;45.034;38.910;2023-02-01T09:28:28;22.77;;;10.18;;
75687;SDS011;64300;45.034;38.910;2023-02-01T09:33:26;23.85;;;10.35;;
75687;SDS011;64300;45.034;38.910;2023-02-01T09:35:59;22.08;;;9.90;;
75687;SDS011;64300;45.034;38.910;2023-02-01T09:38:26;22.10;;;10.35;;
75687;SDS011;64300;45.034;38.910;2023-02-01T09:40:52;26.38;;;11.18;;
75687;SDS011;64300;45.034;38.910;2023-02-01T09:43:33;27.25;;;9.50;;
75687;SDS011;64300;45.034;38.910;2023-02-01T09:48:43;23.52;;;8.82;;
75687;SDS011;64300;45.034;38.910;2023-02-01T09:51:48;18.27;;;8.75;;
75687;SDS011;64300;45.034;38.910;2023-02-01T09:54:17;17.85;;;8.82;;
75687;SDS011;64300;45.034;38.910;2023-02-01T09:56:54;21.88;;;9.30;;
75687;SDS011;64300;45.034;38.910;2023-02-01T10:02:26;21.50;;;8.57;;
75687;SDS011;64300;45.034;38.910;2023-02-01T10:04:55;20.30;;;9.65;;
75687;SDS011;64300;45.034;38.910;2023-02-01T10:07:28;19.92;;;9.20;;
75687;SDS011;64300;45.034;38.910;2023-02-01T10:18:40;18.92;;;9.25;;
75687;SDS011;64300;45.034;38.910;2023-02-01T10:21:31;21.63;;;10.10;;
75687;SDS011;64300;45.034;38.910;2023-02-01T10:27:02;22.52;;;10.05;;
75687;SDS011;64300;45.034;38.910;2023-02-01T10:29:38;21.55;;;10.05;;
75687;SDS011;64300;45.034;38.910;2023-02-01T10:32:10;20.63;;;9.65;;
75687;SDS011;64300;45.034;38.910;2023-02-01T10:37:16;14.73;;;7.72;;
75687;SDS011;64300;45.034;38.910;2023-02-01T10:39:49;16.55;;;8.18;;
75687;SDS011;64300;45.034;38.910;2023-02-01T10:42:20;15.43;;;7.55;;
75687;SDS011;64300;45.034;38.910;2023-02-01T10:44:49;18.25;;;8.48;;
75687;SDS011;64300;45.034;38.910;2023-02-01T10:47:19;15.82;;;8.00;;
75687;SDS011;64300;45.034;38.910;2023-02-01T10:52:31;15.57;;;7.90;;
75687;SDS011;64300;45.034;38.910;2023-02-01T10:58:15;16.80;;;7.40;;
75687;SDS011;64300;45.034;38.910;2023-02-01T11:00:47;21.48;;;8.70;;
75687;SDS011;64300;45.034;38.910;2023-02-01T11:03:19;17.17;;;8.75;;
75687;SDS011;64300;45.034;38.910;2023-02-01T11:06:16;18.80;;;9.57;;
75687;SDS011;64300;45.034;38.910;2023-02-01T11:08:45;13.70;;;7.28;;
75687;SDS011;64300;45.034;38.910;2023-02-01T11:11:13;18.67;;;8.13;;
75687;SDS011;64300;45.034;38.910;2023-02-01T11:13:40;18.02;;;9.10;;
75687;SDS011;64300;45.034;38.910;2023-02-01T11:16:06;19.30;;;7.97;;
75687;SDS011;64300;45.034;38.910;2023-02-01T11:18:37;20.50;;;8.65;;
75687;SDS011;64300;45.034;38.910;2023-02-01T11:21:04;14.13;;;6.90;;
75687;SDS011;64300;45.034;38.910;2023-02-01T11:23:32;16.35;;;8.45;;
75687;SDS011;64300;45.034;38.910;2023-02-01T11:25:59;20.10;;;8.90;;
75687;SDS011;64300;45.034;38.910;2023-02-01T11:29:03;23.33;;;9.35;;
75687;SDS011;64300;45.034;38.910;2023-02-01T11:31:34;18.63;;;8.68;;
75687;SDS011;64300;45.034;38.910;2023-02-01T11:34:22;17.33;;;8.60;;
75687;SDS011;64300;45.034;38.910;2023-02-01T11:36:49;15.25;;;7.93;;
75687;SDS011;64300;45.034;38.910;2023-02-01T11:39:24;19.90;;;7.63;;
75687;SDS011;64300;45.034;38.910;2023-02-01T11:44:33;16.15;;;7.90;;
75687;SDS011;64300;45.034;38.910;2023-02-01T11:49:45;17.92;;;8.90;;
75687;SDS011;64300;45.034;38.910;2023-02-01T11:52:16;19.42;;;9.85;;
75687;SDS011;64300;45.034;38.910;2023-02-01T11:54:55;17.17;;;8.65;;
75687;SDS011;64300;45.034;38.910;2023-02-01T11:57:34;14.50;;;7.65;;
75687;SDS011;64300;45.034;38.910;2023-02-01T12:05:56;22.73;;;8.93;;
75687;SDS011;64300;45.034;38.910;2023-02-01T12:39:20;15.73;;;6.95;;
75687;SDS011;64300;45.034;38.910;2023-02-01T12:44:39;15.30;;;8.00;;
75687;SDS011;64300;45.034;38.910;2023-02-01T12:50:05;16.52;;;7.93;;
75687;SDS011;64300;45.034;38.910;2023-02-01T12:52:39;19.10;;;8.35;;
75687;SDS011;64300;45.034;38.910;2023-02-01T12:58:14;18.67;;;8.40;;
75687;SDS011;64300;45.034;38.910;2023-02-01T13:01:02;21.50;;;8.75;;
75687;SDS011;64300;45.034;38.910;2023-02-01T13:06:04;17.50;;;7.53;;
75687;SDS011;64300;45.034;38.910;2023-02-01T13:12:14;17.77;;;7.20;;
75687;SDS011;64300;45.034;38.910;2023-02-01T13:15:28;18.20;;;7.93;;
75687;SDS011;64300;45.034;38.910;2023-02-01T13:17:46;15.23;;;7.60;;
75687;SDS011;64300;45.034;38.910;2023-02-01T13:20:21;15.40;;;7.43;;
75687;SDS011;64300;45.034;38.910;2023-02-01T13:25:41;17.15;;;7.35;;
75687;SDS011;64300;45.034;38.910;2023-02-01T13:29:09;16.20;;;7.82;;
75687;SDS011;64300;45.034;38.910;2023-02-01T13:34:33;16.58;;;6.82;;
75687;SDS011;64300;45.034;38.910;2023-02-01T13:37:31;14.00;;;6.70;;
75687;SDS011;64300;45.034;38.910;2023-02-01T13:40:38;14.45;;;6.95;;
75687;SDS011;64300;45.034;38.910;2023-02-01T13:43:06;15.43;;;7.80;;
75687;SDS011;64300;45.034;38.910;2023-02-01T13:45:44;17.15;;;6.82;;
75687;SDS011;64300;45.034;38.910;2023-02-01T13:48:20;16.25;;;7.35;;
75687;SDS011;64300;45.034;38.910;2023-02-01T13:50:55;21.67;;;7.53;;
75687;SDS011;64300;45.034;38.910;2023-02-01T13:53:24;16.52;;;7.90;;
75687;SDS011;64300;45.034;38.910;2023-02-01T13:55:55;17.75;;;7.53;;
75687;SDS011;64300;45.034;38.910;2023-02-01T13:58:34;16.83;;;8.45;;
75687;SDS011;64300;45.034;38.910;2023-02-01T14:03:49;23.33;;;9.77;;
75687;SDS011;64300;45.034;38.910;2023-02-01T14:11:41;25.65;;;9.40;;
75687;SDS011;64300;45.034;38.910;2023-02-01T14:17:32;26.42;;;12.13;;
75687;SDS011;64300;45.034;38.910;2023-02-01T14:19:36;27.33;;;11.02;;
75687;SDS011;64300;45.034;38.910;2023-02-01T14:24:49;22.38;;;10.15;;
75687;SDS011;64300;45.034;38.910;2023-02-01T14:27:20;30.40;;;11.52;;
75687;SDS011;64300;45.034;38.910;2023-02-01T14:29:52;24.42;;;9.82;;
75687;SDS011;64300;45.034;38.910;2023-02-01T14:32:24;32.45;;;10.68;;
75687;SDS011;64300;45.034;38.910;2023-02-01T14:34:56;26.88;;;10.55;;
75687;SDS011;64300;45.034;38.910;2023-02-01T14:37:29;27.00;;;11.15;;
75687;SDS011;64300;45.034;38.910;2023-02-01T14:42:49;18.55;;;9.10;;
75687;SDS011;64300;45.034;38.910;2023-02-01T14:50:33;26.80;;;11.05;;
75687;SDS011;64300;45.034;38.910;2023-02-01T14:55:48;28.10;;;11.60;;
75687;SDS011;64300;45.034;38.910;2023-02-01T15:01:38;20.58;;;9.00;;
75687;SDS011;64300;45.034;38.910;2023-02-01T15:04:16;26.15;;;10.10;;
75687;SDS011;64300;45.034;38.910;2023-02-01T15:09:20;24.35;;;9.50;;
75687;SDS011;64300;45.034;38.910;2023-02-01T15:14:23;28.08;;;10.05;;
75687;SDS011;64300;45.034;38.910;2023-02-01T15:16:53;25.98;;;9.63;;
75687;SDS011;64300;45.034;38.910;2023-02-01T15:19:20;20.98;;;9.90;;
75687;SDS011;64300;45.034;38.910;2023-02-01T15:21:49;22.70;;;9.75;;
75687;SDS011;64300;45.034;38.910;2023-02-01T15:24:28;24.75;;;11.38;;
75687;SDS011;64300;45.034;38.910;2023-02-01T15:26:56;17.15;;;8.07;;
75687;SDS011;64300;45.034;38.910;2023-02-01T15:29:29;20.88;;;9.02;;
75687;SDS011;64300;45.034;38.910;2023-02-01T15:31:58;26.40;;;9.35;;
75687;SDS011;64300;45.034;38.910;2023-02-01T15:34:43;20.73;;;9.35;;
75687;SDS011;64300;45.034;38.910;2023-02-01T15:37:14;20.48;;;8.60;;
75687;SDS011;64300;45.034;38.910;2023-02-01T15:42:31;18.13;;;8.45;;
75687;SDS011;64300;45.034;38.910;2023-02-01T15:45:02;23.77;;;9.75;;
75687;SDS011;64300;45.034;38.910;2023-02-01T15:47:31;21.77;;;9.18;;
75687;SDS011;64300;45.034;38.910;2023-02-01T15:50:11;17.70;;;7.93;;
75687;SDS011;64300;45.034;38.910;2023-02-01T15:52:40;18.88;;;8.50;;
75687;SDS011;64300;45.034;38.910;2023-02-01T15:55:08;23.95;;;9.20;;
75687;SDS011;64300;45.034;38.910;2023-02-01T15:57:45;22.42;;;8.50;;
75687;SDS011;64300;45.034;38.910;2023-02-01T16:02:56;18.02;;;8.15;;
75687;SDS011;64300;45.034;38.910;2023-02-01T16:08:01;21.73;;;9.25;;
75687;SDS011;64300;45.034;38.910;2023-02-01T16:10:40;17.90;;;7.30;;
75687;SDS011;64300;45.034;38.910;2023-02-01T16:15:35;26.52;;;10.13;;
75687;SDS011;64300;45.034;38.910;2023-02-01T16:18:03;21.75;;;8.45;;
75687;SDS011;64300;45.034;38.910;2023-02-01T16:22:55;19.75;;;7.85;;
75687;SDS011;64300;45.034;38.910;2023-02-01T16:25:22;22.25;;;8.93;;
75687;SDS011;64300;45.034;38.910;2023-02-01T16:30:13;11.93;;;5.50;;
75687;SDS011;64300;45.034;38.910;2023-02-01T16:32:40;22.13;;;9.57;;
75687;SDS011;64300;45.034;38.910;2023-02-01T16:35:27;24.70;;;9.13;;
75687;SDS011;64300;45.034;38.910;2023-02-01T16:37:55;23.83;;;8.32;;
75687;SDS011;64300;45.034;38.910;2023-02-01T16:40:21;23.45;;;8.85;;
75687;SDS011;64300;45.034;38.910;2023-02-01T16:42:48;23.33;;;9.00;;
75687;SDS011;64300;45.034;38.910;2023-02-01T16:45:16;20.45;;;8.95;;
75687;SDS011;64300;45.034;38.910;2023-02-01T16:47:47;23.38;;;9.15;;
75687;SDS011;64300;45.034;38.910;2023-02-01T16:50:19;26.05;;;9.27;;
75687;SDS011;64300;45.034;38.910;2023-02-01T16:52:48;24.42;;;10.35;;
75687;SDS011;64300;45.034;38.910;2023-02-01T16:55:15;24.08;;;10.95;;
75687;SDS011;64300;45.034;38.910;2023-02-01T16:57:43;24.50;;;9.82;;
75687;SDS011;64300;45.034;38.910;2023-02-01T17:00:10;26.17;;;11.30;;
75687;SDS011;64300;45.034;38.910;2023-02-01T17:02:38;20.25;;;8.63;;
75687;SDS011;64300;45.034;38.910;2023-02-01T17:05:05;25.65;;;11.20;;
75687;SDS011;64300;45.034;38.910;2023-02-01T17:07:33;27.80;;;11.75;;
75687;SDS011;64300;45.034;38.910;2023-02-01T17:10:00;24.58;;;10.07;;
75687;SDS011;64300;45.034;38.910;2023-02-01T17:12:29;25.73;;;11.02;;
75687;SDS011;64300;45.034;38.910;2023-02-01T17:14:57;24.88;;;10.25;;
75687;SDS011;64300;45.034;38.910;2023-02-01T17:17:24;28.45;;;14.27;;
75687;SDS011;64300;45.034;38.910;2023-02-01T17:19:56;27.17;;;10.88;;
75687;SDS011;64300;45.034;38.910;2023-02-01T17:22:22;25.90;;;10.23;;
75687;SDS011;64300;45.034;38.910;2023-02-01T17:24:49;27.10;;;9.77;;
75687;SDS011;64300;45.034;38.910;2023-02-01T17:27:15;24.77;;;9.60;;
75687;SDS011;64300;45.034;38.910;2023-02-01T17:29:42;19.23;;;8.13;;
75687;SDS011;64300;45.034;38.910;2023-02-01T17:32:19;13.68;;;6.10;;
75687;SDS011;64300;45.034;38.910;2023-02-01T17:34:50;24.92;;;10.20;;
75687;SDS011;64300;45.034;38.910;2023-02-01T17:37:27;30.38;;;11.32;;
75687;SDS011;64300;45.034;38.910;2023-02-01T17:42:21;32.55;;;13.35;;
75687;SDS011;64300;45.034;38.910;2023-02-01T17:44:50;25.77;;;10.15;;
75687;SDS011;64300;45.034;38.910;2023-02-01T17:50:38;22.92;;;9.23;;
75687;SDS011;64300;45.034;38.910;2023-02-01T17:53:05;35.35;;;14.38;;
75687;SDS011;64300;45.034;38.910;2023-02-01T17:55:34;31.90;;;11.90;;
75687;SDS011;64300;45.034;38.910;2023-02-01T17:58:02;28.95;;;11.05;;
75687;SDS011;64300;45.034;38.910;2023-02-01T18:00:28;28.25;;;10.27;;
75687;SDS011;64300;45.034;38.910;2023-02-01T18:02:54;30.92;;;12.65;;
75687;SDS011;64300;45.034;38.910;2023-02-01T18:05:22;27.80;;;11.85;;